createdAt,value
2022-09-12T00:01:41.037Z,13.80
2022-09-12T00:04:07.811Z,13.80
2022-09-12T00:06:36.659Z,13.80
2022-09-12T00:09:13.085Z,13.80
2022-09-12T00:11:42.839Z,13.70
2022-09-12T00:14:13.118Z,13.60
2022-09-12T00:16:40.352Z,13.70
2022-09-12T00:19:08.110Z,13.60
2022-09-12T00:21:37.121Z,13.50
2022-09-12T00:24:04.679Z,13.40
2022-09-12T00:26:32.093Z,13.40
2022-09-12T00:28:58.807Z,13.40
2022-09-12T00:31:26.841Z,13.40
2022-09-12T00:33:56.531Z,13.30
2022-09-12T00:36:25.179Z,13.30
2022-09-12T00:38:54.470Z,13.30
2022-09-12T00:41:29.644Z,13.20
2022-09-12T00:43:59.163Z,13.20
2022-09-12T00:46:41.839Z,13.20
2022-09-12T00:49:22.748Z,13.30
2022-09-12T00:51:55.905Z,13.30
2022-09-12T00:54:30.118Z,13.30
2022-09-12T00:57:02.542Z,13.40
2022-09-12T00:59:35.119Z,13.40
2022-09-12T01:02:01.917Z,13.40
2022-09-12T01:04:30.029Z,13.40
2022-09-12T01:06:58.749Z,13.40
2022-09-12T01:09:25.730Z,13.40
2022-09-12T01:11:53.520Z,13.40
2022-09-12T01:14:20.779Z,13.50
2022-09-12T01:16:49.609Z,13.40
2022-09-12T01:19:20.148Z,13.40
2022-09-12T01:22:22.591Z,13.40
2022-09-12T01:25:13.089Z,13.40
2022-09-12T01:27:57.446Z,13.40
2022-09-12T01:30:42.997Z,13.40
2022-09-12T01:33:12.693Z,13.40
2022-09-12T01:35:51.402Z,13.50
2022-09-12T01:38:43.294Z,13.50
2022-09-12T01:41:44.665Z,13.40
2022-09-12T01:44:36.631Z,13.30
2022-09-12T01:47:10.118Z,13.30
2022-09-12T01:50:07.062Z,13.20
2022-09-12T01:53:19.100Z,13.30
2022-09-12T01:55:54.496Z,13.20
2022-09-12T01:58:29.131Z,13.10
2022-09-12T02:01:08.400Z,13.10
2022-09-12T02:03:44.515Z,13.10
2022-09-12T02:06:35.265Z,13.10
2022-09-12T02:09:08.929Z,13.00
2022-09-12T02:11:40.985Z,13.00
2022-09-12T02:14:15.786Z,13.00
2022-09-12T02:16:48.470Z,12.90
2022-09-12T02:19:21.822Z,12.90
2022-09-12T02:21:58.296Z,12.90
2022-09-12T02:24:30.380Z,12.80
2022-09-12T02:27:03.720Z,12.80
2022-09-12T02:29:30.685Z,12.80
2022-09-12T02:32:15.378Z,12.80
2022-09-12T02:34:52.810Z,12.80
2022-09-12T02:37:32.758Z,12.80
2022-09-12T02:40:00.575Z,12.80
2022-09-12T02:42:27.361Z,12.90
2022-09-12T02:44:58.674Z,12.80
2022-09-12T02:47:37.654Z,12.80
2022-09-12T02:50:05.875Z,12.70
2022-09-12T02:52:32.603Z,12.60
2022-09-12T02:54:59.549Z,12.70
2022-09-12T02:57:26.265Z,12.70
2022-09-12T02:59:56.940Z,12.70
2022-09-12T03:02:29.406Z,12.70
2022-09-12T03:05:13.373Z,12.60
2022-09-12T03:07:45.851Z,12.70
2022-09-12T03:10:41.823Z,12.80
2022-09-12T03:13:32.586Z,12.90
2022-09-12T03:16:44.165Z,12.80
2022-09-12T03:19:44.321Z,12.80
2022-09-12T03:22:33.203Z,12.90
2022-09-12T03:25:16.876Z,12.90
2022-09-12T03:27:49.460Z,12.90
2022-09-12T03:30:16.213Z,12.90
2022-09-12T03:32:45.942Z,12.90
2022-09-12T03:35:14.653Z,12.90
2022-09-12T03:37:41.925Z,12.90
2022-09-12T03:40:12.045Z,12.90
2022-09-12T03:42:39.545Z,12.90
2022-09-12T03:45:06.944Z,12.90
2022-09-12T03:47:33.649Z,12.90
2022-09-12T03:50:00.820Z,12.80
2022-09-12T03:52:27.515Z,12.80
2022-09-12T03:54:54.226Z,12.80
2022-09-12T03:57:20.999Z,12.80
2022-09-12T03:59:50.059Z,12.70
2022-09-12T04:02:17.472Z,12.70
2022-09-12T04:04:44.779Z,12.80
2022-09-12T04:07:11.910Z,12.80
2022-09-12T04:09:38.847Z,12.80
2022-09-12T04:12:07.898Z,12.70
2022-09-12T04:14:34.634Z,12.60
2022-09-12T04:17:01.453Z,12.80
2022-09-12T04:19:28.690Z,12.70
2022-09-12T04:21:55.502Z,12.70
2022-09-12T04:24:22.305Z,12.70
2022-09-12T04:26:49.060Z,12.70
2022-09-12T04:29:15.820Z,12.70
2022-09-12T04:31:42.743Z,12.60
2022-09-12T04:34:09.772Z,12.70
2022-09-12T04:36:37.287Z,12.70
2022-09-12T04:39:05.191Z,12.70
2022-09-12T04:41:35.087Z,12.70
2022-09-12T04:44:07.427Z,12.70
2022-09-12T04:46:38.583Z,12.70
2022-09-12T04:49:05.447Z,12.70
2022-09-12T04:51:36.992Z,12.60
2022-09-12T04:54:13.157Z,12.60
2022-09-12T04:56:41.319Z,12.50
2022-09-12T04:59:08.753Z,12.50
2022-09-12T05:01:35.810Z,12.50
2022-09-12T05:04:03.654Z,12.50
2022-09-12T05:06:35.957Z,12.50
2022-09-12T05:09:04.103Z,12.50
2022-09-12T05:12:00.153Z,12.50
2022-09-12T05:14:20.482Z,12.50
2022-09-12T05:16:49.628Z,12.50
2022-09-12T05:19:16.689Z,12.50
2022-09-12T05:21:43.443Z,12.50
2022-09-12T05:24:11.177Z,12.60
2022-09-12T05:26:37.978Z,12.60
2022-09-12T05:29:06.089Z,12.60
2022-09-12T05:31:32.929Z,12.70
2022-09-12T05:33:59.598Z,12.60
2022-09-12T05:36:29.165Z,12.70
2022-09-12T05:38:56.510Z,12.80
2022-09-12T05:41:25.785Z,12.80
2022-09-12T05:43:54.520Z,12.60
2022-09-12T05:46:22.994Z,12.40
2022-09-12T05:48:55.651Z,12.40
2022-09-12T05:51:28.404Z,12.40
2022-09-12T05:54:00.501Z,12.40
2022-09-12T05:56:48.285Z,12.50
2022-09-12T05:59:21.038Z,12.50
2022-09-12T06:01:48.749Z,12.40
2022-09-12T06:04:16.054Z,12.40
2022-09-12T06:06:45.101Z,12.40
2022-09-12T06:09:14.066Z,12.50
2022-09-12T06:11:41.394Z,12.60
2022-09-12T06:14:09.908Z,12.40
2022-09-12T06:16:37.681Z,12.40
2022-09-12T06:19:07.322Z,12.40
2022-09-12T06:21:35.337Z,12.40
2022-09-12T06:24:02.607Z,12.30
2022-09-12T06:26:30.602Z,12.40
2022-09-12T06:28:59.344Z,12.30
2022-09-12T06:31:29.261Z,12.40
2022-09-12T06:33:59.184Z,12.50
2022-09-12T06:36:28.817Z,12.50
2022-09-12T06:38:57.734Z,12.60
2022-09-12T06:41:25.443Z,12.70
2022-09-12T06:43:52.919Z,12.80
2022-09-12T06:46:20.707Z,12.90
2022-09-12T06:48:47.674Z,13.00
2022-09-12T06:51:16.605Z,13.00
2022-09-12T06:53:45.382Z,13.10
2022-09-12T06:56:14.598Z,13.20
2022-09-12T06:58:42.782Z,13.30
2022-09-12T07:01:15.137Z,13.30
2022-09-12T07:03:43.503Z,13.30
2022-09-12T07:06:14.919Z,13.40
2022-09-12T07:08:42.060Z,13.50
2022-09-12T07:11:23.617Z,13.60
2022-09-12T07:13:54.374Z,13.60
2022-09-12T07:16:21.526Z,13.70
2022-09-12T07:18:53.093Z,13.80
2022-09-12T07:21:20.458Z,13.70
2022-09-12T07:23:47.826Z,13.60
2022-09-12T07:26:15.790Z,13.60
2022-09-12T07:28:42.917Z,13.60
2022-09-12T07:31:16.167Z,13.70
2022-09-12T07:33:43.753Z,13.60
2022-09-12T07:36:16.151Z,13.80
2022-09-12T07:38:43.926Z,13.90
2022-09-12T07:41:21.706Z,13.90
2022-09-12T07:43:51.246Z,13.90
2022-09-12T07:46:18.376Z,13.90
2022-09-12T07:48:49.814Z,13.90
2022-09-12T07:51:17.302Z,13.90
2022-09-12T07:53:44.363Z,13.90
2022-09-12T07:56:12.107Z,13.80
2022-09-12T07:58:40.872Z,13.90
2022-09-12T08:01:11.022Z,14.00
2022-09-12T08:03:37.939Z,14.00
2022-09-12T08:06:06.861Z,14.00
2022-09-12T08:08:33.933Z,14.00
2022-09-12T08:11:02.389Z,14.10
2022-09-12T08:13:31.693Z,14.10
2022-09-12T08:16:04.230Z,14.10
2022-09-12T08:18:32.624Z,14.30
2022-09-12T08:21:00.778Z,14.30
2022-09-12T08:23:31.706Z,14.20
2022-09-12T08:26:05.325Z,14.20
2022-09-12T08:28:34.452Z,14.00
2022-09-12T08:31:05.999Z,14.10
2022-09-12T08:33:33.631Z,14.20
2022-09-12T08:36:05.004Z,14.30
2022-09-12T08:38:32.938Z,14.40
2022-09-12T08:41:10.250Z,14.60
2022-09-12T08:44:13.639Z,14.80
2022-09-12T08:46:57.149Z,14.80
2022-09-12T08:49:53.156Z,14.80
2022-09-12T08:52:24.429Z,15.00
2022-09-12T08:54:51.478Z,15.10
2022-09-12T08:57:18.463Z,15.20
2022-09-12T08:59:46.313Z,15.40
2022-09-12T09:02:53.564Z,15.40
2022-09-12T09:05:50.036Z,15.50
2022-09-12T09:08:45.566Z,15.60
2022-09-12T09:11:24.009Z,15.80
2022-09-12T09:14:41.495Z,16.10
2022-09-12T09:17:14.925Z,16.20
2022-09-12T09:19:48.812Z,15.90
2022-09-12T09:22:30.762Z,16.10
2022-09-12T09:25:02.535Z,16.40
2022-09-12T09:27:42.809Z,16.50
2022-09-12T09:30:18.985Z,16.60
2022-09-12T09:32:50.955Z,16.90
2022-09-12T09:35:31.208Z,17.10
2022-09-12T09:38:18.194Z,17.40
2022-09-12T09:40:59.801Z,17.80
2022-09-12T09:43:29.440Z,18.00
2022-09-12T09:45:59.245Z,18.30
2022-09-12T09:48:35.965Z,18.50
2022-09-12T09:51:05.453Z,18.40
2022-09-12T09:53:32.264Z,18.70
2022-09-12T09:56:03.278Z,18.40
2022-09-12T09:58:31.552Z,18.60
2022-09-12T10:01:06.512Z,18.40
2022-09-12T10:03:37.846Z,18.20
2022-09-12T10:06:32.884Z,18.10
2022-09-12T10:09:14.874Z,17.90
2022-09-12T10:11:45.678Z,17.70
2022-09-12T10:14:32.145Z,17.80
2022-09-12T10:16:59.479Z,17.80
2022-09-12T10:19:38.849Z,17.70
2022-09-12T10:22:07.146Z,17.80
2022-09-12T10:24:36.706Z,18.00
2022-09-12T10:27:08.818Z,18.20
2022-09-12T10:30:00.978Z,18.40
2022-09-12T10:32:38.571Z,18.40
2022-09-12T10:35:19.521Z,18.40
2022-09-12T10:37:57.711Z,18.70
2022-09-12T10:40:27.985Z,18.80
2022-09-12T10:42:59.594Z,19.10
2022-09-12T10:45:38.486Z,19.30
2022-09-12T10:48:32.527Z,19.30
2022-09-12T10:51:00.042Z,19.50
2022-09-12T10:53:44.081Z,19.70
2022-09-12T10:56:22.626Z,19.80
2022-09-12T10:59:20.215Z,20.10
2022-09-12T11:01:49.298Z,20.20
2022-09-12T11:04:46.528Z,20.50
2022-09-12T11:07:39.106Z,20.60
2022-09-12T11:10:26.814Z,20.40
2022-09-12T11:13:15.379Z,20.60
2022-09-12T11:15:47.549Z,20.80
2022-09-12T11:18:32.856Z,21.10
2022-09-12T11:21:19.774Z,21.30
2022-09-12T11:23:55.953Z,21.30
2022-09-12T11:26:33.897Z,21.60
2022-09-12T11:29:03.602Z,21.60
2022-09-12T11:32:07.990Z,21.70
2022-09-12T11:34:55.926Z,21.60
2022-09-12T11:37:33.991Z,21.80
2022-09-12T11:40:17.343Z,22.00
2022-09-12T11:42:46.302Z,22.20
2022-09-12T11:45:22.155Z,22.30
2022-09-12T11:47:53.879Z,22.40
2022-09-12T11:50:32.056Z,22.40
2022-09-12T11:53:16.843Z,22.50
2022-09-12T11:55:52.563Z,22.60
2022-09-12T11:58:23.418Z,22.80
2022-09-12T12:00:54.691Z,22.70
2022-09-12T12:03:43.585Z,22.80
2022-09-12T12:06:28.832Z,23.00
2022-09-12T12:08:55.655Z,23.40
2022-09-12T12:11:38.071Z,23.20
2022-09-12T12:14:18.710Z,23.30
2022-09-12T12:16:46.114Z,23.70
2022-09-12T12:19:15.759Z,23.60
2022-09-12T12:21:47.801Z,24.00
2022-09-12T12:24:28.851Z,24.10
2022-09-12T12:27:22.996Z,24.10
2022-09-12T12:29:49.750Z,23.90
2022-09-12T12:32:16.455Z,24.60
2022-09-12T12:34:47.489Z,25.80
2022-09-12T12:37:22.506Z,26.70
2022-09-12T12:39:50.208Z,26.90
2022-09-12T12:42:35.380Z,25.90
2022-09-12T12:45:04.055Z,25.20
2022-09-12T12:47:46.155Z,25.80
2022-09-12T12:50:21.628Z,26.60
2022-09-12T12:52:52.241Z,26.30
2022-09-12T12:55:31.214Z,26.80
2022-09-12T12:58:03.444Z,26.90
2022-09-12T13:00:36.096Z,26.80
2022-09-12T13:03:06.581Z,26.60
2022-09-12T13:05:40.878Z,26.30
2022-09-12T13:08:18.893Z,26.50
2022-09-12T13:10:57.887Z,26.50
2022-09-12T13:13:34.251Z,26.80
2022-09-12T13:16:01.123Z,27.20
2022-09-12T13:18:37.697Z,26.70
2022-09-12T13:21:11.612Z,26.80
2022-09-12T13:23:38.919Z,26.90
2022-09-12T13:26:12.829Z,27.60
2022-09-12T13:28:39.571Z,27.60
2022-09-12T13:31:22.002Z,27.70
2022-09-12T13:33:51.150Z,27.50
2022-09-12T13:37:08.945Z,27.90
2022-09-12T13:40:13.071Z,28.30
2022-09-12T13:42:42.505Z,27.70
2022-09-12T13:45:14.667Z,27.60
2022-09-12T13:47:46.939Z,27.20
2022-09-12T13:50:24.909Z,26.60
2022-09-12T13:53:05.433Z,26.10
2022-09-12T13:55:39.109Z,26.00
2022-09-12T13:58:17.047Z,25.70
2022-09-12T14:00:44.976Z,25.40
2022-09-12T14:04:08.138Z,25.30
2022-09-12T14:06:49.545Z,25.50
2022-09-12T14:09:25.346Z,25.80
2022-09-12T14:11:53.057Z,25.70
2022-09-12T14:14:36.508Z,25.60
2022-09-12T14:17:24.039Z,25.10
2022-09-12T14:19:52.757Z,24.90
2022-09-12T14:22:19.633Z,24.70
2022-09-12T14:24:50.374Z,24.40
2022-09-12T14:27:28.664Z,24.20
2022-09-12T14:30:08.907Z,23.90
2022-09-12T14:32:36.089Z,23.80
2022-09-12T14:35:20.151Z,23.80
2022-09-12T14:37:51.341Z,23.80
2022-09-12T14:40:23.552Z,23.80
2022-09-12T14:42:52.590Z,23.60
2022-09-12T14:45:31.349Z,23.50
2022-09-12T14:47:58.740Z,23.60
2022-09-12T14:50:27.726Z,23.40
2022-09-12T14:53:04.818Z,23.30
2022-09-12T14:55:34.025Z,23.10
2022-09-12T14:58:36.510Z,23.10
2022-09-12T15:01:06.509Z,23.00
2022-09-12T15:03:36.980Z,22.90
2022-09-12T15:06:07.873Z,22.70
2022-09-12T15:08:34.843Z,22.70
2022-09-12T15:11:01.679Z,22.60
2022-09-12T15:13:30.695Z,22.40
2022-09-12T15:15:59.778Z,22.20
2022-09-12T15:18:28.693Z,22.10
2022-09-12T15:21:00.861Z,21.90
2022-09-12T15:23:34.085Z,22.00
2022-09-12T15:26:01.133Z,21.90
2022-09-12T15:28:30.024Z,21.90
2022-09-12T15:31:05.431Z,22.10
2022-09-12T15:33:32.243Z,22.00
2022-09-12T15:35:58.919Z,21.80
2022-09-12T15:38:26.760Z,21.90
2022-09-12T15:40:54.436Z,21.80
2022-09-12T15:43:22.418Z,21.80
2022-09-12T15:45:51.610Z,21.60
2022-09-12T15:48:19.306Z,21.60
2022-09-12T15:50:46.003Z,21.50
2022-09-12T15:53:16.039Z,21.40
2022-09-12T15:55:43.622Z,21.30
2022-09-12T15:58:10.699Z,21.30
2022-09-12T16:00:37.499Z,21.30
2022-09-12T16:03:05.011Z,21.20
2022-09-12T16:05:32.262Z,21.30
2022-09-12T16:07:58.986Z,21.30
2022-09-12T16:10:29.566Z,21.20
2022-09-12T16:12:56.746Z,21.20
2022-09-12T16:15:25.400Z,21.20
2022-09-12T16:17:52.865Z,21.10
2022-09-12T16:20:20.885Z,21.20
2022-09-12T16:22:48.276Z,21.30
2022-09-12T16:25:15.127Z,21.30
2022-09-12T16:27:42.128Z,21.20
2022-09-12T16:30:09.562Z,21.10
2022-09-12T16:32:36.958Z,21.00
2022-09-12T16:35:04.471Z,21.00
2022-09-12T16:37:34.394Z,20.90
2022-09-12T16:40:02.342Z,21.00
2022-09-12T16:42:29.881Z,20.90
2022-09-12T16:44:56.567Z,20.90
2022-09-12T16:47:23.417Z,21.00
2022-09-12T16:49:51.189Z,21.00
2022-09-12T16:52:19.047Z,21.00
2022-09-12T16:54:45.828Z,21.00
2022-09-12T16:57:12.776Z,21.00
2022-09-12T16:59:39.585Z,20.90
2022-09-12T17:02:07.471Z,20.80
2022-09-12T17:04:34.212Z,20.70
2022-09-12T17:07:01.064Z,20.50
2022-09-12T17:09:29.266Z,20.40
2022-09-12T17:11:56.487Z,20.40
2022-09-12T17:14:23.523Z,20.30
2022-09-12T17:16:52.085Z,20.20
2022-09-12T17:19:26.454Z,20.10
2022-09-12T17:21:53.598Z,20.00
2022-09-12T17:24:20.901Z,19.80
2022-09-12T17:26:47.701Z,19.60
2022-09-12T17:29:15.163Z,19.50
2022-09-12T17:31:43.186Z,19.30
2022-09-12T17:34:14.188Z,19.00
2022-09-12T17:36:44.142Z,18.80
2022-09-12T17:39:12.104Z,18.70
2022-09-12T17:41:38.907Z,18.60
2022-09-12T17:44:07.301Z,18.50
2022-09-12T17:46:36.650Z,18.40
2022-09-12T17:49:10.607Z,18.30
2022-09-12T17:51:37.446Z,18.20
2022-09-12T17:54:08.208Z,18.00
2022-09-12T17:56:36.954Z,17.80
2022-09-12T17:59:06.027Z,17.70
2022-09-12T18:01:51.473Z,17.60
2022-09-12T18:04:19.873Z,17.50
2022-09-12T18:06:48.771Z,17.40
2022-09-12T18:09:19.479Z,17.30
2022-09-12T18:11:48.064Z,17.20
2022-09-12T18:14:15.923Z,17.10
2022-09-12T18:16:43.280Z,16.90
2022-09-12T18:19:10.985Z,16.90
2022-09-12T18:21:38.038Z,16.80
2022-09-12T18:24:05.386Z,16.70
2022-09-12T18:26:33.052Z,16.60
2022-09-12T18:28:59.868Z,16.60
2022-09-12T18:31:29.279Z,16.50
2022-09-12T18:33:57.689Z,16.40
2022-09-12T18:36:24.596Z,16.20
2022-09-12T18:38:51.412Z,16.00
2022-09-12T18:41:22.839Z,15.90
2022-09-12T18:43:54.038Z,15.90
2022-09-12T18:46:20.899Z,15.80
2022-09-12T18:48:49.678Z,15.80
2022-09-12T18:51:22.466Z,15.80
2022-09-12T18:53:54.651Z,15.70
2022-09-12T18:56:23.421Z,15.60
2022-09-12T18:58:55.414Z,15.50
2022-09-12T19:01:25.891Z,15.40
2022-09-12T19:03:53.985Z,15.40
2022-09-12T19:06:23.865Z,15.40
2022-09-12T19:08:52.083Z,15.40
2022-09-12T19:11:19.782Z,15.30
2022-09-12T19:13:49.267Z,15.30
2022-09-12T19:16:25.102Z,15.20
2022-09-12T19:18:52.393Z,15.20
2022-09-12T19:21:30.948Z,15.10
2022-09-12T19:24:04.481Z,15.00
2022-09-12T19:26:31.317Z,14.90
2022-09-12T19:28:59.028Z,14.90
2022-09-12T19:31:25.882Z,14.90
2022-09-12T19:33:52.720Z,14.90
2022-09-12T19:36:43.727Z,14.80
2022-09-12T19:39:09.251Z,14.70
2022-09-12T19:41:36.438Z,14.60
2022-09-12T19:44:04.761Z,14.50
2022-09-12T19:46:31.959Z,14.40
2022-09-12T19:48:58.760Z,14.40
2022-09-12T19:51:25.650Z,14.40
2022-09-12T19:53:53.023Z,14.30
2022-09-12T19:56:19.951Z,14.30
2022-09-12T19:58:50.856Z,14.20
2022-09-12T20:01:27.686Z,14.20
2022-09-12T20:03:55.358Z,14.10
2022-09-12T20:06:22.500Z,14.10
2022-09-12T20:08:49.943Z,14.10
2022-09-12T20:11:19.047Z,14.00
2022-09-12T20:13:46.468Z,13.90
2022-09-12T20:16:21.029Z,13.80
2022-09-12T20:18:53.117Z,13.70
2022-09-12T20:21:24.861Z,13.70
2022-09-12T20:23:51.605Z,13.70
2022-09-12T20:26:20.205Z,13.70
2022-09-12T20:28:47.201Z,13.70
2022-09-12T20:31:16.243Z,13.70
2022-09-12T20:33:43.983Z,13.70
2022-09-12T20:36:14.695Z,13.60
2022-09-12T20:38:46.078Z,13.60
2022-09-12T20:41:12.796Z,13.50
2022-09-12T20:43:40.074Z,13.50
2022-09-12T20:46:09.612Z,13.40
2022-09-12T20:48:37.396Z,13.50
2022-09-12T20:51:04.596Z,13.40
2022-09-12T20:53:34.814Z,13.40
2022-09-12T20:56:02.978Z,13.40
2022-09-12T20:58:29.865Z,13.40
2022-09-12T21:00:57.123Z,13.40
2022-09-12T21:03:25.354Z,13.30
2022-09-12T21:05:52.507Z,13.30
2022-09-12T21:08:19.207Z,13.30
2022-09-12T21:10:45.988Z,13.10
2022-09-12T21:13:13.625Z,13.00
2022-09-12T21:15:41.054Z,13.00
2022-09-12T21:18:08.157Z,12.90
2022-09-12T21:20:35.332Z,13.00
2022-09-12T21:23:02.160Z,12.90
2022-09-12T21:25:30.162Z,12.90
2022-09-12T21:27:56.991Z,12.80
2022-09-12T21:30:23.688Z,12.80
2022-09-12T21:32:50.352Z,12.80
2022-09-12T21:35:17.150Z,12.80
2022-09-12T21:37:43.808Z,12.70
2022-09-12T21:40:10.811Z,12.60
2022-09-12T21:42:37.695Z,12.60
2022-09-12T21:45:05.062Z,12.50
2022-09-12T21:47:31.987Z,12.50
2022-09-12T21:49:58.723Z,12.40
2022-09-12T21:52:25.590Z,12.30
2022-09-12T21:54:52.287Z,12.30
2022-09-12T21:57:19.632Z,12.20
2022-09-12T21:59:46.424Z,12.10
2022-09-12T22:02:13.699Z,12.00
2022-09-12T22:04:40.449Z,12.10
2022-09-12T22:07:07.794Z,12.00
2022-09-12T22:09:35.029Z,11.90
2022-09-12T22:12:02.477Z,12.00
2022-09-12T22:14:29.563Z,12.10
2022-09-12T22:16:56.808Z,12.10
2022-09-12T22:19:23.632Z,12.10
2022-09-12T22:22:09.485Z,12.10
2022-09-12T22:24:36.301Z,12.10
2022-09-12T22:27:05.812Z,12.10
2022-09-12T22:29:33.210Z,12.10
2022-09-12T22:32:00.749Z,12.10
2022-09-12T22:34:28.726Z,12.10
2022-09-12T22:36:55.586Z,12.10
2022-09-12T22:39:22.993Z,12.10
2022-09-12T22:41:50.021Z,12.00
2022-09-12T22:44:17.699Z,11.90
2022-09-12T22:46:44.572Z,11.90
2022-09-12T22:49:11.382Z,11.80
2022-09-12T22:51:38.883Z,11.70
2022-09-12T22:54:06.209Z,11.70
2022-09-12T22:56:33.176Z,11.60
2022-09-12T22:58:59.922Z,11.70
2022-09-12T23:01:27.107Z,11.60
2022-09-12T23:03:53.976Z,11.70
2022-09-12T23:06:21.025Z,11.70
2022-09-12T23:08:47.795Z,11.70
2022-09-12T23:11:16.435Z,11.60
2022-09-12T23:13:45.598Z,11.60
2022-09-12T23:16:23.845Z,11.50
2022-09-12T23:18:51.216Z,11.50
2022-09-12T23:21:20.709Z,11.50
2022-09-12T23:23:47.466Z,11.50
2022-09-12T23:26:17.541Z,11.40
2022-09-12T23:28:52.882Z,11.30
2022-09-12T23:31:20.757Z,11.40
2022-09-12T23:33:49.941Z,11.30
2022-09-12T23:36:16.618Z,11.40
2022-09-12T23:38:45.938Z,11.30
2022-09-12T23:41:14.781Z,11.30
2022-09-12T23:43:42.903Z,11.10
2022-09-12T23:46:09.754Z,11.00
2022-09-12T23:48:36.589Z,11.10
2022-09-12T23:51:03.359Z,10.90
2022-09-12T23:53:30.085Z,10.80
2022-09-12T23:55:56.991Z,10.90
2022-09-12T23:58:24.122Z,10.90
